sensor_id;sensor_type;location;lat;lon;timestamp;temperature;humidity
298;DHT22;133;49.626;9.680;2023-07-16T00:01:58;20.40;98.70
298;DHT22;133;49.626;9.680;2023-07-16T00:04:24;20.20;98.70
298;DHT22;133;49.626;9.680;2023-07-16T00:06:50;20.00;98.70
298;DHT22;133;49.626;9.680;2023-07-16T00:09:15;20.00;98.70
298;DHT22;133;49.626;9.680;2023-07-16T00:11:41;19.90;98.70
298;DHT22;133;49.626;9.680;2023-07-16T00:14:07;19.70;98.70
298;DHT22;133;49.626;9.680;2023-07-16T00:16:33;19.70;98.70
298;DHT22;133;49.626;9.680;2023-07-16T00:18:58;19.80;98.70
298;DHT22;133;49.626;9.680;2023-07-16T00:21:24;19.70;98.70
298;DHT22;133;49.626;9.680;2023-07-16T00:23:50;19.80;98.70
298;DHT22;133;49.626;9.680;2023-07-16T00:26:16;19.80;98.70
298;DHT22;133;49.626;9.680;2023-07-16T00:28:41;19.90;98.70
298;DHT22;133;49.626;9.680;2023-07-16T00:31:07;20.00;98.70
298;DHT22;133;49.626;9.680;2023-07-16T00:33:33;20.10;98.70
298;DHT22;133;49.626;9.680;2023-07-16T00:35:58;20.20;98.70
298;DHT22;133;49.626;9.680;2023-07-16T00:38:24;20.20;98.70
298;DHT22;133;49.626;9.680;2023-07-16T00:40:50;20.30;98.70
298;DHT22;133;49.626;9.680;2023-07-16T00:43:15;20.30;98.70
298;DHT22;133;49.626;9.680;2023-07-16T00:45:42;20.30;98.70
298;DHT22;133;49.626;9.680;2023-07-16T00:48:10;20.30;98.70
298;DHT22;133;49.626;9.680;2023-07-16T00:50:36;20.30;98.70
298;DHT22;133;49.626;9.680;2023-07-16T00:53:05;20.40;98.70
298;DHT22;133;49.626;9.680;2023-07-16T00:55:32;20.30;98.70
298;DHT22;133;49.626;9.680;2023-07-16T00:58:03;20.30;98.70
298;DHT22;133;49.626;9.680;2023-07-16T01:00:34;20.20;98.70
298;DHT22;133;49.626;9.680;2023-07-16T01:03:01;20.20;98.70
298;DHT22;133;49.626;9.680;2023-07-16T01:05:34;20.20;98.70
298;DHT22;133;49.626;9.680;2023-07-16T01:08:04;20.20;98.70
298;DHT22;133;49.626;9.680;2023-07-16T01:10:32;20.20;98.70
298;DHT22;133;49.626;9.680;2023-07-16T01:12:58;20.20;98.70
298;DHT22;133;49.626;9.680;2023-07-16T01:15:25;20.20;98.70
298;DHT22;133;49.626;9.680;2023-07-16T01:17:50;20.20;98.70
298;DHT22;133;49.626;9.680;2023-07-16T01:20:16;20.20;98.70
298;DHT22;133;49.626;9.680;2023-07-16T01:28:35;20.10;98.70
298;DHT22;133;49.626;9.680;2023-07-16T01:31:04;20.00;98.70
298;DHT22;133;49.626;9.680;2023-07-16T01:33:32;20.00;98.70
298;DHT22;133;49.626;9.680;2023-07-16T01:35:59;20.00;98.70
298;DHT22;133;49.626;9.680;2023-07-16T01:38:25;20.00;98.70
298;DHT22;133;49.626;9.680;2023-07-16T01:40:51;20.00;98.70
298;DHT22;133;49.626;9.680;2023-07-16T01:43:16;19.90;98.70
298;DHT22;133;49.626;9.680;2023-07-16T01:45:42;19.90;98.70
298;DHT22;133;49.626;9.680;2023-07-16T01:50:51;19.90;98.70
298;DHT22;133;49.626;9.680;2023-07-16T01:53:17;19.80;98.70
298;DHT22;133;49.626;9.680;2023-07-16T01:55:42;19.80;98.70
298;DHT22;133;49.626;9.680;2023-07-16T01:58:08;19.70;98.70
298;DHT22;133;49.626;9.680;2023-07-16T02:00:35;19.70;98.70
298;DHT22;133;49.626;9.680;2023-07-16T02:03:01;19.60;98.70
298;DHT22;133;49.626;9.680;2023-07-16T02:05:26;19.60;98.70
298;DHT22;133;49.626;9.680;2023-07-16T02:07:52;19.60;98.70
298;DHT22;133;49.626;9.680;2023-07-16T02:10:18;19.50;98.70
298;DHT22;133;49.626;9.680;2023-07-16T02:12:43;19.40;98.70
298;DHT22;133;49.626;9.680;2023-07-16T02:15:09;19.40;98.70
298;DHT22;133;49.626;9.680;2023-07-16T02:17:35;19.40;98.70
298;DHT22;133;49.626;9.680;2023-07-16T02:20:01;19.40;98.70
298;DHT22;133;49.626;9.680;2023-07-16T02:22:27;19.30;98.70
298;DHT22;133;49.626;9.680;2023-07-16T02:24:53;19.30;98.70
298;DHT22;133;49.626;9.680;2023-07-16T02:27:18;19.30;98.70
298;DHT22;133;49.626;9.680;2023-07-16T02:29:44;19.30;98.70
298;DHT22;133;49.626;9.680;2023-07-16T02:32:09;19.30;98.70
298;DHT22;133;49.626;9.680;2023-07-16T02:34:35;19.30;98.70
298;DHT22;133;49.626;9.680;2023-07-16T02:37:00;19.30;98.70
298;DHT22;133;49.626;9.680;2023-07-16T02:39:26;19.30;98.70
298;DHT22;133;49.626;9.680;2023-07-16T02:41:51;19.20;98.70
298;DHT22;133;49.626;9.680;2023-07-16T02:44:17;19.20;98.70
298;DHT22;133;49.626;9.680;2023-07-16T02:46:43;19.20;98.40
298;DHT22;133;49.626;9.680;2023-07-16T02:49:09;19.10;98.70
298;DHT22;133;49.626;9.680;2023-07-16T02:51:35;19.00;98.50
298;DHT22;133;49.626;9.680;2023-07-16T02:54:00;19.00;98.70
298;DHT22;133;49.626;9.680;2023-07-16T02:56:26;19.00;98.70
298;DHT22;133;49.626;9.680;2023-07-16T02:58:52;19.00;98.70
298;DHT22;133;49.626;9.680;2023-07-16T03:01:17;19.00;98.70
298;DHT22;133;49.626;9.680;2023-07-16T03:03:43;19.00;98.70
298;DHT22;133;49.626;9.680;2023-07-16T03:06:08;19.00;98.70
298;DHT22;133;49.626;9.680;2023-07-16T03:08:34;19.00;98.70
298;DHT22;133;49.626;9.680;2023-07-16T03:11:00;19.00;98.70
298;DHT22;133;49.626;9.680;2023-07-16T03:13:26;19.00;98.70
298;DHT22;133;49.626;9.680;2023-07-16T03:15:51;19.00;98.70
298;DHT22;133;49.626;9.680;2023-07-16T03:18:18;19.00;98.70
298;DHT22;133;49.626;9.680;2023-07-16T03:20:44;19.00;98.70
298;DHT22;133;49.626;9.680;2023-07-16T03:23:09;19.00;98.70
298;DHT22;133;49.626;9.680;2023-07-16T03:25:35;19.00;98.70
298;DHT22;133;49.626;9.680;2023-07-16T03:28:01;18.90;98.70
298;DHT22;133;49.626;9.680;2023-07-16T03:30:26;18.90;98.70
298;DHT22;133;49.626;9.680;2023-07-16T03:32:52;18.80;98.70
298;DHT22;133;49.626;9.680;2023-07-16T03:35:18;18.70;98.70
298;DHT22;133;49.626;9.680;2023-07-16T03:37:43;18.70;98.70
298;DHT22;133;49.626;9.680;2023-07-16T03:40:13;18.60;98.70
298;DHT22;133;49.626;9.680;2023-07-16T03:42:40;18.60;98.70
298;DHT22;133;49.626;9.680;2023-07-16T03:45:06;18.70;98.70
298;DHT22;133;49.626;9.680;2023-07-16T03:47:32;18.60;98.70
298;DHT22;133;49.626;9.680;2023-07-16T03:49:58;18.60;98.70
298;DHT22;133;49.626;9.680;2023-07-16T03:52:23;18.60;98.70
298;DHT22;133;49.626;9.680;2023-07-16T03:54:50;18.60;98.70
298;DHT22;133;49.626;9.680;2023-07-16T03:57:16;18.60;98.70
298;DHT22;133;49.626;9.680;2023-07-16T03:59:42;18.60;98.70
298;DHT22;133;49.626;9.680;2023-07-16T04:02:08;18.60;98.70
298;DHT22;133;49.626;9.680;2023-07-16T04:04:34;18.70;98.70
298;DHT22;133;49.626;9.680;2023-07-16T04:06:59;18.70;98.70
298;DHT22;133;49.626;9.680;2023-07-16T04:09:25;18.80;98.60
298;DHT22;133;49.626;9.680;2023-07-16T04:11:51;18.80;98.70
298;DHT22;133;49.626;9.680;2023-07-16T04:14:17;18.70;97.90
298;DHT22;133;49.626;9.680;2023-07-16T04:16:42;18.80;98.00
298;DHT22;133;49.626;9.680;2023-07-16T04:19:08;18.80;97.90
298;DHT22;133;49.626;9.680;2023-07-16T04:21:34;18.70;97.60
298;DHT22;133;49.626;9.680;2023-07-16T04:24:01;18.70;97.50
298;DHT22;133;49.626;9.680;2023-07-16T04:26:27;18.70;97.40
298;DHT22;133;49.626;9.680;2023-07-16T04:28:53;18.80;97.80
298;DHT22;133;49.626;9.680;2023-07-16T04:31:18;18.80;97.80
298;DHT22;133;49.626;9.680;2023-07-16T04:33:44;18.70;97.30
298;DHT22;133;49.626;9.680;2023-07-16T04:36:09;18.70;96.80
298;DHT22;133;49.626;9.680;2023-07-16T04:38:35;18.60;96.80
298;DHT22;133;49.626;9.680;2023-07-16T04:41:01;18.40;96.60
298;DHT22;133;49.626;9.680;2023-07-16T04:43:26;18.40;97.00
298;DHT22;133;49.626;9.680;2023-07-16T04:45:52;18.30;96.50
298;DHT22;133;49.626;9.680;2023-07-16T04:48:17;18.30;97.10
298;DHT22;133;49.626;9.680;2023-07-16T04:50:43;18.20;97.20
298;DHT22;133;49.626;9.680;2023-07-16T04:53:09;18.30;97.60
298;DHT22;133;49.626;9.680;2023-07-16T04:55:37;18.40;97.40
298;DHT22;133;49.626;9.680;2023-07-16T04:58:02;18.30;96.50
298;DHT22;133;49.626;9.680;2023-07-16T05:00:28;18.40;97.00
298;DHT22;133;49.626;9.680;2023-07-16T05:02:53;18.30;96.30
298;DHT22;133;49.626;9.680;2023-07-16T05:05:19;18.40;96.70
298;DHT22;133;49.626;9.680;2023-07-16T05:07:45;18.40;96.50
298;DHT22;133;49.626;9.680;2023-07-16T05:10:10;18.60;96.50
298;DHT22;133;49.626;9.680;2023-07-16T05:12:36;18.60;95.70
298;DHT22;133;49.626;9.680;2023-07-16T05:15:02;18.60;96.00
298;DHT22;133;49.626;9.680;2023-07-16T05:17:27;18.70;95.70
298;DHT22;133;49.626;9.680;2023-07-16T05:19:53;18.80;95.00
298;DHT22;133;49.626;9.680;2023-07-16T05:22:19;18.70;94.40
298;DHT22;133;49.626;9.680;2023-07-16T05:24:44;18.70;94.40
298;DHT22;133;49.626;9.680;2023-07-16T05:27:10;18.80;94.50
298;DHT22;133;49.626;9.680;2023-07-16T05:29:35;18.80;94.40
298;DHT22;133;49.626;9.680;2023-07-16T05:32:01;18.80;94.10
298;DHT22;133;49.626;9.680;2023-07-16T05:34:27;18.80;93.90
298;DHT22;133;49.626;9.680;2023-07-16T05:36:54;18.90;94.50
298;DHT22;133;49.626;9.680;2023-07-16T05:39:21;19.00;94.40
298;DHT22;133;49.626;9.680;2023-07-16T05:41:47;19.00;94.00
298;DHT22;133;49.626;9.680;2023-07-16T05:44:13;19.00;93.60
298;DHT22;133;49.626;9.680;2023-07-16T05:46:39;19.00;93.40
298;DHT22;133;49.626;9.680;2023-07-16T05:49:04;19.10;93.50
298;DHT22;133;49.626;9.680;2023-07-16T05:51:30;19.00;93.10
298;DHT22;133;49.626;9.680;2023-07-16T05:53:55;19.00;93.30
298;DHT22;133;49.626;9.680;2023-07-16T05:56:21;19.10;93.40
298;DHT22;133;49.626;9.680;2023-07-16T05:58:46;19.20;93.50
298;DHT22;133;49.626;9.680;2023-07-16T06:01:12;19.20;92.80
298;DHT22;133;49.626;9.680;2023-07-16T06:03:38;19.20;92.80
298;DHT22;133;49.626;9.680;2023-07-16T06:06:03;19.20;92.70
298;DHT22;133;49.626;9.680;2023-07-16T06:08:29;19.10;92.40
298;DHT22;133;49.626;9.680;2023-07-16T06:10:55;19.00;92.30
298;DHT22;133;49.626;9.680;2023-07-16T06:13:21;19.00;92.80
298;DHT22;133;49.626;9.680;2023-07-16T06:15:49;19.00;92.40
298;DHT22;133;49.626;9.680;2023-07-16T06:18:15;19.10;92.50
298;DHT22;133;49.626;9.680;2023-07-16T06:20:47;19.10;92.50
298;DHT22;133;49.626;9.680;2023-07-16T06:23:14;19.20;91.90
298;DHT22;133;49.626;9.680;2023-07-16T06:25:42;19.10;91.40
298;DHT22;133;49.626;9.680;2023-07-16T06:28:12;19.10;91.10
298;DHT22;133;49.626;9.680;2023-07-16T06:30:38;19.00;91.00
298;DHT22;133;49.626;9.680;2023-07-16T06:33:03;18.90;91.50
298;DHT22;133;49.626;9.680;2023-07-16T06:35:29;18.80;91.70
298;DHT22;133;49.626;9.680;2023-07-16T06:37:54;18.60;91.80
298;DHT22;133;49.626;9.680;2023-07-16T06:50:26;18.70;91.60
298;DHT22;133;49.626;9.680;2023-07-16T06:52:52;18.80;91.30
298;DHT22;133;49.626;9.680;2023-07-16T06:55:17;18.80;90.90
298;DHT22;133;49.626;9.680;2023-07-16T06:57:43;18.80;90.40
298;DHT22;133;49.626;9.680;2023-07-16T07:00:09;19.00;89.90
298;DHT22;133;49.626;9.680;2023-07-16T07:02:36;19.00;89.10
298;DHT22;133;49.626;9.680;2023-07-16T07:05:02;19.10;88.70
298;DHT22;133;49.626;9.680;2023-07-16T07:07:27;19.20;88.50
298;DHT22;133;49.626;9.680;2023-07-16T07:09:53;19.20;87.90
298;DHT22;133;49.626;9.680;2023-07-16T07:12:18;19.30;87.40
298;DHT22;133;49.626;9.680;2023-07-16T07:14:44;19.30;87.90
298;DHT22;133;49.626;9.680;2023-07-16T07:17:09;19.50;87.80
298;DHT22;133;49.626;9.680;2023-07-16T07:19:35;19.60;87.70
298;DHT22;133;49.626;9.680;2023-07-16T07:22:01;19.70;87.40
298;DHT22;133;49.626;9.680;2023-07-16T07:24:26;19.70;87.70
298;DHT22;133;49.626;9.680;2023-07-16T07:26:52;19.60;86.60
298;DHT22;133;49.626;9.680;2023-07-16T07:29:18;19.50;86.90
298;DHT22;133;49.626;9.680;2023-07-16T07:31:43;19.40;87.50
298;DHT22;133;49.626;9.680;2023-07-16T07:34:09;19.40;87.90
298;DHT22;133;49.626;9.680;2023-07-16T07:36:34;19.50;88.10
298;DHT22;133;49.626;9.680;2023-07-16T07:39:00;19.50;87.80
298;DHT22;133;49.626;9.680;2023-07-16T07:41:25;19.60;87.20
298;DHT22;133;49.626;9.680;2023-07-16T07:43:51;19.50;86.70
298;DHT22;133;49.626;9.680;2023-07-16T07:46:17;19.40;86.30
298;DHT22;133;49.626;9.680;2023-07-16T07:48:42;19.20;83.80
298;DHT22;133;49.626;9.680;2023-07-16T07:51:08;19.10;85.40
298;DHT22;133;49.626;9.680;2023-07-16T07:53:33;19.20;85.90
298;DHT22;133;49.626;9.680;2023-07-16T07:55:59;19.30;86.50
298;DHT22;133;49.626;9.680;2023-07-16T07:58:24;19.60;86.30
298;DHT22;133;49.626;9.680;2023-07-16T08:00:50;19.70;84.60
298;DHT22;133;49.626;9.680;2023-07-16T08:03:16;19.80;84.10
298;DHT22;133;49.626;9.680;2023-07-16T08:05:41;20.00;83.50
298;DHT22;133;49.626;9.680;2023-07-16T08:08:07;20.00;82.90
298;DHT22;133;49.626;9.680;2023-07-16T08:10:33;20.10;82.60
298;DHT22;133;49.626;9.680;2023-07-16T08:12:58;20.10;81.90
298;DHT22;133;49.626;9.680;2023-07-16T08:15:24;20.00;82.80
298;DHT22;133;49.626;9.680;2023-07-16T08:17:50;20.00;81.00
298;DHT22;133;49.626;9.680;2023-07-16T08:20:15;20.10;81.10
298;DHT22;133;49.626;9.680;2023-07-16T08:22:41;20.30;80.70
298;DHT22;133;49.626;9.680;2023-07-16T08:25:07;20.50;80.90
298;DHT22;133;49.626;9.680;2023-07-16T08:27:34;20.70;80.40
298;DHT22;133;49.626;9.680;2023-07-16T08:30:00;20.40;77.80
298;DHT22;133;49.626;9.680;2023-07-16T08:32:26;20.30;78.60
298;DHT22;133;49.626;9.680;2023-07-16T08:34:52;20.40;78.90
298;DHT22;133;49.626;9.680;2023-07-16T08:37:17;20.60;77.60
298;DHT22;133;49.626;9.680;2023-07-16T08:39:43;20.80;76.20
298;DHT22;133;49.626;9.680;2023-07-16T08:42:09;20.70;75.70
298;DHT22;133;49.626;9.680;2023-07-16T08:44:37;20.60;76.10
298;DHT22;133;49.626;9.680;2023-07-16T08:47:03;20.70;77.10
298;DHT22;133;49.626;9.680;2023-07-16T08:49:30;20.70;75.80
298;DHT22;133;49.626;9.680;2023-07-16T08:51:56;20.80;75.70
298;DHT22;133;49.626;9.680;2023-07-16T08:54:22;20.80;75.00
298;DHT22;133;49.626;9.680;2023-07-16T08:56:49;21.20;74.90
298;DHT22;133;49.626;9.680;2023-07-16T08:59:15;21.50;73.20
298;DHT22;133;49.626;9.680;2023-07-16T09:01:41;21.60;71.00
298;DHT22;133;49.626;9.680;2023-07-16T09:04:07;22.20;69.90
298;DHT22;133;49.626;9.680;2023-07-16T09:06:33;22.90;67.60
298;DHT22;133;49.626;9.680;2023-07-16T09:08:59;24.00;66.10
298;DHT22;133;49.626;9.680;2023-07-16T09:11:24;25.20;64.50
298;DHT22;133;49.626;9.680;2023-07-16T09:13:53;25.90;61.20
298;DHT22;133;49.626;9.680;2023-07-16T09:16:19;26.10;60.90
298;DHT22;133;49.626;9.680;2023-07-16T09:18:46;26.50;59.20
298;DHT22;133;49.626;9.680;2023-07-16T09:21:12;26.70;58.60
298;DHT22;133;49.626;9.680;2023-07-16T09:23:38;27.50;57.50
298;DHT22;133;49.626;9.680;2023-07-16T09:26:04;27.50;55.60
298;DHT22;133;49.626;9.680;2023-07-16T09:28:31;27.30;57.00
298;DHT22;133;49.626;9.680;2023-07-16T09:31:03;26.70;58.00
298;DHT22;133;49.626;9.680;2023-07-16T09:33:31;25.80;58.80
298;DHT22;133;49.626;9.680;2023-07-16T09:35:57;25.30;60.30
298;DHT22;133;49.626;9.680;2023-07-16T09:38:23;25.90;59.80
298;DHT22;133;49.626;9.680;2023-07-16T09:40:52;25.90;58.90
298;DHT22;133;49.626;9.680;2023-07-16T09:46:44;28.10;55.70
298;DHT22;133;49.626;9.680;2023-07-16T09:49:11;28.90;52.90
298;DHT22;133;49.626;9.680;2023-07-16T09:52:05;28.50;53.60
298;DHT22;133;49.626;9.680;2023-07-16T09:54:49;28.60;53.70
298;DHT22;133;49.626;9.680;2023-07-16T09:57:20;29.50;52.10
298;DHT22;133;49.626;9.680;2023-07-16T10:00:06;29.20;52.10
298;DHT22;133;49.626;9.680;2023-07-16T10:02:36;29.70;52.20
298;DHT22;133;49.626;9.680;2023-07-16T10:05:15;28.70;52.40
298;DHT22;133;49.626;9.680;2023-07-16T10:07:41;27.50;54.90
298;DHT22;133;49.626;9.680;2023-07-16T10:10:11;27.90;54.80
298;DHT22;133;49.626;9.680;2023-07-16T10:12:37;27.70;54.00
298;DHT22;133;49.626;9.680;2023-07-16T10:15:04;27.90;53.90
298;DHT22;133;49.626;9.680;2023-07-16T10:17:32;26.30;56.70
298;DHT22;133;49.626;9.680;2023-07-16T10:20:08;26.00;57.50
298;DHT22;133;49.626;9.680;2023-07-16T10:27:37;26.20;57.70
298;DHT22;133;49.626;9.680;2023-07-16T10:30:04;26.80;56.70
298;DHT22;133;49.626;9.680;2023-07-16T10:32:32;27.30;56.10
298;DHT22;133;49.626;9.680;2023-07-16T10:34:57;27.40;55.40
298;DHT22;133;49.626;9.680;2023-07-16T10:37:24;27.20;55.80
298;DHT22;133;49.626;9.680;2023-07-16T10:39:55;27.10;56.50
298;DHT22;133;49.626;9.680;2023-07-16T10:42:22;26.40;57.30
298;DHT22;133;49.626;9.680;2023-07-16T10:44:49;26.60;57.60
298;DHT22;133;49.626;9.680;2023-07-16T10:47:24;26.30;58.40
298;DHT22;133;49.626;9.680;2023-07-16T10:49:51;26.20;58.30
298;DHT22;133;49.626;9.680;2023-07-16T10:52:23;26.30;58.80
298;DHT22;133;49.626;9.680;2023-07-16T10:54:55;25.50;59.40
298;DHT22;133;49.626;9.680;2023-07-16T10:57:24;25.60;59.90
298;DHT22;133;49.626;9.680;2023-07-16T10:59:51;25.50;59.50
298;DHT22;133;49.626;9.680;2023-07-16T11:02:17;25.10;59.90
298;DHT22;133;49.626;9.680;2023-07-16T11:04:47;25.30;60.90
298;DHT22;133;49.626;9.680;2023-07-16T11:07:16;25.60;60.50
298;DHT22;133;49.626;9.680;2023-07-16T11:09:46;26.00;58.60
298;DHT22;133;49.626;9.680;2023-07-16T11:12:17;26.50;57.30
298;DHT22;133;49.626;9.680;2023-07-16T11:14:46;26.40;57.70
298;DHT22;133;49.626;9.680;2023-07-16T11:17:23;26.90;57.10
298;DHT22;133;49.626;9.680;2023-07-16T11:20:12;27.40;55.60
298;DHT22;133;49.626;9.680;2023-07-16T11:22:40;27.90;54.40
298;DHT22;133;49.626;9.680;2023-07-16T11:25:12;27.30;54.90
298;DHT22;133;49.626;9.680;2023-07-16T11:27:41;27.20;55.30
298;DHT22;133;49.626;9.680;2023-07-16T11:30:07;27.70;56.70
298;DHT22;133;49.626;9.680;2023-07-16T11:35:44;28.90;53.00
298;DHT22;133;49.626;9.680;2023-07-16T11:38:17;28.60;52.60
298;DHT22;133;49.626;9.680;2023-07-16T11:40:46;29.30;52.40
298;DHT22;133;49.626;9.680;2023-07-16T11:43:12;29.80;51.50
298;DHT22;133;49.626;9.680;2023-07-16T11:45:49;30.40;50.30
298;DHT22;133;49.626;9.680;2023-07-16T11:48:26;30.20;49.90
298;DHT22;133;49.626;9.680;2023-07-16T11:51:04;31.00;48.60
298;DHT22;133;49.626;9.680;2023-07-16T11:53:29;31.20;48.20
298;DHT22;133;49.626;9.680;2023-07-16T11:55:55;31.00;47.80
298;DHT22;133;49.626;9.680;2023-07-16T11:58:24;30.70;48.60
298;DHT22;133;49.626;9.680;2023-07-16T12:01:00;30.60;48.40
298;DHT22;133;49.626;9.680;2023-07-16T12:03:41;30.70;47.50
298;DHT22;133;49.626;9.680;2023-07-16T12:06:12;31.00;48.50
298;DHT22;133;49.626;9.680;2023-07-16T12:08:43;31.30;47.80
298;DHT22;133;49.626;9.680;2023-07-16T12:11:09;31.00;48.00
298;DHT22;133;49.626;9.680;2023-07-16T12:13:35;29.70;49.10
298;DHT22;133;49.626;9.680;2023-07-16T12:16:01;29.90;50.20
298;DHT22;133;49.626;9.680;2023-07-16T12:18:27;30.50;49.30
298;DHT22;133;49.626;9.680;2023-07-16T12:20:56;29.50;48.50
298;DHT22;133;49.626;9.680;2023-07-16T12:23:22;29.30;48.30
298;DHT22;133;49.626;9.680;2023-07-16T12:26:25;29.30;48.20
298;DHT22;133;49.626;9.680;2023-07-16T12:28:51;29.10;49.90
298;DHT22;133;49.626;9.680;2023-07-16T12:31:17;28.70;51.00
298;DHT22;133;49.626;9.680;2023-07-16T12:33:44;28.40;50.90
298;DHT22;133;49.626;9.680;2023-07-16T12:36:09;28.50;50.30
298;DHT22;133;49.626;9.680;2023-07-16T12:38:38;28.80;49.90
298;DHT22;133;49.626;9.680;2023-07-16T12:41:07;29.30;49.80
298;DHT22;133;49.626;9.680;2023-07-16T12:43:33;30.20;48.80
298;DHT22;133;49.626;9.680;2023-07-16T12:49:16;30.90;46.00
298;DHT22;133;49.626;9.680;2023-07-16T12:52:30;31.30;46.70
298;DHT22;133;49.626;9.680;2023-07-16T12:55:08;31.60;46.00
298;DHT22;133;49.626;9.680;2023-07-16T12:57:33;30.80;46.20
298;DHT22;133;49.626;9.680;2023-07-16T13:00:08;30.90;46.70
298;DHT22;133;49.626;9.680;2023-07-16T13:05:44;30.90;46.10
298;DHT22;133;49.626;9.680;2023-07-16T13:08:10;31.30;47.00
298;DHT22;133;49.626;9.680;2023-07-16T13:10:39;31.40;45.40
298;DHT22;133;49.626;9.680;2023-07-16T13:13:08;30.90;46.10
298;DHT22;133;49.626;9.680;2023-07-16T13:15:34;30.70;47.10
298;DHT22;133;49.626;9.680;2023-07-16T13:18:00;30.90;46.40
298;DHT22;133;49.626;9.680;2023-07-16T13:20:25;30.80;46.50
298;DHT22;133;49.626;9.680;2023-07-16T13:22:51;30.80;46.60
298;DHT22;133;49.626;9.680;2023-07-16T13:25:17;30.70;46.50
298;DHT22;133;49.626;9.680;2023-07-16T13:27:43;30.70;46.80
298;DHT22;133;49.626;9.680;2023-07-16T13:30:09;30.70;46.70
298;DHT22;133;49.626;9.680;2023-07-16T13:33:08;31.00;45.90
298;DHT22;133;49.626;9.680;2023-07-16T13:35:34;31.00;45.90
298;DHT22;133;49.626;9.680;2023-07-16T13:37:59;30.60;45.10
298;DHT22;133;49.626;9.680;2023-07-16T13:40:26;30.00;44.70
298;DHT22;133;49.626;9.680;2023-07-16T13:42:52;29.60;46.00
298;DHT22;133;49.626;9.680;2023-07-16T13:45:18;29.50;45.50
298;DHT22;133;49.626;9.680;2023-07-16T13:47:51;29.40;45.90
298;DHT22;133;49.626;9.680;2023-07-16T13:50:18;28.70;47.20
298;DHT22;133;49.626;9.680;2023-07-16T13:52:44;29.00;47.50
298;DHT22;133;49.626;9.680;2023-07-16T13:55:10;29.00;46.70
298;DHT22;133;49.626;9.680;2023-07-16T13:57:36;29.10;46.30
298;DHT22;133;49.626;9.680;2023-07-16T14:00:02;29.20;46.40
298;DHT22;133;49.626;9.680;2023-07-16T14:02:30;28.80;45.70
298;DHT22;133;49.626;9.680;2023-07-16T14:04:56;29.20;44.80
298;DHT22;133;49.626;9.680;2023-07-16T14:07:22;29.30;43.90
298;DHT22;133;49.626;9.680;2023-07-16T14:09:49;29.20;45.20
298;DHT22;133;49.626;9.680;2023-07-16T14:12:15;28.70;46.40
298;DHT22;133;49.626;9.680;2023-07-16T14:14:40;29.10;47.30
298;DHT22;133;49.626;9.680;2023-07-16T14:17:06;29.20;45.90
298;DHT22;133;49.626;9.680;2023-07-16T14:19:32;29.60;44.80
298;DHT22;133;49.626;9.680;2023-07-16T14:21:57;29.60;44.30
298;DHT22;133;49.626;9.680;2023-07-16T14:24:23;29.70;44.40
298;DHT22;133;49.626;9.680;2023-07-16T14:26:49;29.20;43.80
298;DHT22;133;49.626;9.680;2023-07-16T14:29:14;28.80;44.50
298;DHT22;133;49.626;9.680;2023-07-16T14:31:40;29.00;45.30
298;DHT22;133;49.626;9.680;2023-07-16T14:34:06;29.00;44.10
298;DHT22;133;49.626;9.680;2023-07-16T14:36:32;29.30;44.80
298;DHT22;133;49.626;9.680;2023-07-16T14:39:03;29.40;44.10
298;DHT22;133;49.626;9.680;2023-07-16T14:42:13;29.50;44.30
298;DHT22;133;49.626;9.680;2023-07-16T14:44:45;29.20;44.10
298;DHT22;133;49.626;9.680;2023-07-16T14:47:11;29.30;43.80
298;DHT22;133;49.626;9.680;2023-07-16T14:49:41;29.50;43.40
298;DHT22;133;49.626;9.680;2023-07-16T14:52:15;29.60;43.30
298;DHT22;133;49.626;9.680;2023-07-16T14:54:43;29.80;43.30
298;DHT22;133;49.626;9.680;2023-07-16T14:57:17;29.20;43.50
298;DHT22;133;49.626;9.680;2023-07-16T14:59:45;28.90;44.50
298;DHT22;133;49.626;9.680;2023-07-16T15:02:12;29.10;44.50
298;DHT22;133;49.626;9.680;2023-07-16T15:04:41;29.00;46.00
298;DHT22;133;49.626;9.680;2023-07-16T15:07:15;29.00;43.30
298;DHT22;133;49.626;9.680;2023-07-16T15:09:44;29.00;44.50
298;DHT22;133;49.626;9.680;2023-07-16T15:12:10;29.40;44.30
298;DHT22;133;49.626;9.680;2023-07-16T15:14:35;29.60;43.30
298;DHT22;133;49.626;9.680;2023-07-16T15:17:01;29.70;44.00
298;DHT22;133;49.626;9.680;2023-07-16T15:19:26;29.70;43.10
298;DHT22;133;49.626;9.680;2023-07-16T15:21:52;29.70;43.10
298;DHT22;133;49.626;9.680;2023-07-16T15:24:18;29.70;43.10
298;DHT22;133;49.626;9.680;2023-07-16T15:26:44;29.60;42.10
298;DHT22;133;49.626;9.680;2023-07-16T15:29:10;29.30;42.90
298;DHT22;133;49.626;9.680;2023-07-16T15:31:35;29.40;42.80
298;DHT22;133;49.626;9.680;2023-07-16T15:34:09;29.30;43.50
298;DHT22;133;49.626;9.680;2023-07-16T15:36:53;29.50;43.90
298;DHT22;133;49.626;9.680;2023-07-16T15:39:19;29.80;43.10
298;DHT22;133;49.626;9.680;2023-07-16T15:41:44;29.40;43.00
298;DHT22;133;49.626;9.680;2023-07-16T15:44:10;28.90;43.50
298;DHT22;133;49.626;9.680;2023-07-16T15:46:36;28.70;43.30
298;DHT22;133;49.626;9.680;2023-07-16T15:49:02;28.80;43.80
298;DHT22;133;49.626;9.680;2023-07-16T15:51:27;29.20;43.80
298;DHT22;133;49.626;9.680;2023-07-16T15:53:54;29.30;43.00
298;DHT22;133;49.626;9.680;2023-07-16T15:56:21;29.30;44.10
298;DHT22;133;49.626;9.680;2023-07-16T15:58:48;28.90;43.70
298;DHT22;133;49.626;9.680;2023-07-16T16:01:14;28.70;42.70
298;DHT22;133;49.626;9.680;2023-07-16T16:03:39;28.40;43.30
298;DHT22;133;49.626;9.680;2023-07-16T16:06:05;28.70;43.70
298;DHT22;133;49.626;9.680;2023-07-16T16:08:31;28.80;43.70
298;DHT22;133;49.626;9.680;2023-07-16T16:10:59;28.90;44.00
298;DHT22;133;49.626;9.680;2023-07-16T16:13:24;29.00;44.00
298;DHT22;133;49.626;9.680;2023-07-16T16:15:52;29.10;43.60
298;DHT22;133;49.626;9.680;2023-07-16T16:18:17;29.00;43.30
298;DHT22;133;49.626;9.680;2023-07-16T16:20:44;28.80;43.60
298;DHT22;133;49.626;9.680;2023-07-16T16:23:10;28.90;43.30
298;DHT22;133;49.626;9.680;2023-07-16T16:25:36;28.90;43.40
298;DHT22;133;49.626;9.680;2023-07-16T16:28:03;28.80;43.80
298;DHT22;133;49.626;9.680;2023-07-16T16:30:33;28.60;43.90
298;DHT22;133;49.626;9.680;2023-07-16T16:33:02;28.10;44.60
298;DHT22;133;49.626;9.680;2023-07-16T16:35:32;28.20;45.30
298;DHT22;133;49.626;9.680;2023-07-16T16:37:58;28.50;45.40
298;DHT22;133;49.626;9.680;2023-07-16T16:40:24;28.30;45.20
298;DHT22;133;49.626;9.680;2023-07-16T16:42:50;28.20;45.10
298;DHT22;133;49.626;9.680;2023-07-16T16:45:17;28.10;45.80
298;DHT22;133;49.626;9.680;2023-07-16T16:47:43;28.30;45.60
298;DHT22;133;49.626;9.680;2023-07-16T16:50:09;28.20;45.90
298;DHT22;133;49.626;9.680;2023-07-16T16:52:35;28.30;46.40
298;DHT22;133;49.626;9.680;2023-07-16T16:55:02;28.30;46.30
298;DHT22;133;49.626;9.680;2023-07-16T16:57:29;28.10;46.60
298;DHT22;133;49.626;9.680;2023-07-16T16:59:55;27.80;46.90
298;DHT22;133;49.626;9.680;2023-07-16T17:02:21;27.90;47.20
298;DHT22;133;49.626;9.680;2023-07-16T17:04:47;28.10;47.20
298;DHT22;133;49.626;9.680;2023-07-16T17:07:12;27.70;46.60
298;DHT22;133;49.626;9.680;2023-07-16T17:09:39;27.60;47.50
298;DHT22;133;49.626;9.680;2023-07-16T17:12:07;27.70;47.00